sensor_id;sensor_type;location;lat;lon;timestamp;temperature;humidity
9410;DHT22;4744;52.576;13.568;2022-11-15T00:00:46;3.80;1.00
9410;DHT22;4744;52.576;13.568;2022-11-15T00:03:14;3.80;1.00
9410;DHT22;4744;52.576;13.568;2022-11-15T00:05:41;3.70;1.00
9410;DHT22;4744;52.576;13.568;2022-11-15T00:08:08;3.70;1.00
9410;DHT22;4744;52.576;13.568;2022-11-15T00:10:35;3.70;1.00
9410;DHT22;4744;52.576;13.568;2022-11-15T00:13:05;3.70;1.00
9410;DHT22;4744;52.576;13.568;2022-11-15T00:15:34;3.70;1.00
9410;DHT22;4744;52.576;13.568;2022-11-15T00:18:03;3.70;1.00
9410;DHT22;4744;52.576;13.568;2022-11-15T00:20:30;3.70;1.00
9410;DHT22;4744;52.576;13.568;2022-11-15T00:22:57;3.70;1.00
9410;DHT22;4744;52.576;13.568;2022-11-15T00:25:24;3.70;1.00
9410;DHT22;4744;52.576;13.568;2022-11-15T00:27:55;3.70;1.00
9410;DHT22;4744;52.576;13.568;2022-11-15T00:30:22;3.70;1.00
9410;DHT22;4744;52.576;13.568;2022-11-15T00:32:49;3.60;1.00
9410;DHT22;4744;52.576;13.568;2022-11-15T00:35:18;3.70;1.00
9410;DHT22;4744;52.576;13.568;2022-11-15T00:37:45;3.60;1.00
9410;DHT22;4744;52.576;13.568;2022-11-15T00:40:14;3.60;1.00
9410;DHT22;4744;52.576;13.568;2022-11-15T00:42:41;3.70;1.00
9410;DHT22;4744;52.576;13.568;2022-11-15T00:45:09;3.70;1.00
9410;DHT22;4744;52.576;13.568;2022-11-15T00:47:36;3.60;1.00
9410;DHT22;4744;52.576;13.568;2022-11-15T00:50:04;3.60;1.00
9410;DHT22;4744;52.576;13.568;2022-11-15T00:52:32;3.60;1.00
9410;DHT22;4744;52.576;13.568;2022-11-15T00:54:59;3.60;1.00
9410;DHT22;4744;52.576;13.568;2022-11-15T00:57:26;3.60;1.00
9410;DHT22;4744;52.576;13.568;2022-11-15T00:59:53;3.60;1.00
9410;DHT22;4744;52.576;13.568;2022-11-15T01:02:20;3.60;1.00
9410;DHT22;4744;52.576;13.568;2022-11-15T01:04:48;3.60;1.00
9410;DHT22;4744;52.576;13.568;2022-11-15T01:07:15;3.60;1.00
9410;DHT22;4744;52.576;13.568;2022-11-15T01:09:43;3.60;1.00
9410;DHT22;4744;52.576;13.568;2022-11-15T01:12:10;3.60;1.00
9410;DHT22;4744;52.576;13.568;2022-11-15T01:14:37;3.60;1.00
9410;DHT22;4744;52.576;13.568;2022-11-15T01:17:04;3.60;1.00
9410;DHT22;4744;52.576;13.568;2022-11-15T01:19:31;3.60;1.00
9410;DHT22;4744;52.576;13.568;2022-11-15T01:21:58;3.70;1.00
9410;DHT22;4744;52.576;13.568;2022-11-15T01:24:24;3.70;1.00
9410;DHT22;4744;52.576;13.568;2022-11-15T01:26:53;3.70;1.00
9410;DHT22;4744;52.576;13.568;2022-11-15T01:29:20;3.70;1.00
9410;DHT22;4744;52.576;13.568;2022-11-15T01:31:47;3.70;1.00
9410;DHT22;4744;52.576;13.568;2022-11-15T01:34:14;3.70;1.00
9410;DHT22;4744;52.576;13.568;2022-11-15T01:36:41;3.80;1.00
9410;DHT22;4744;52.576;13.568;2022-11-15T01:39:08;3.70;1.00
9410;DHT22;4744;52.576;13.568;2022-11-15T01:41:35;3.80;1.00
9410;DHT22;4744;52.576;13.568;2022-11-15T01:44:36;3.70;1.00
9410;DHT22;4744;52.576;13.568;2022-11-15T01:47:06;3.70;1.00
9410;DHT22;4744;52.576;13.568;2022-11-15T01:49:37;3.70;1.00
9410;DHT22;4744;52.576;13.568;2022-11-15T01:52:09;3.70;1.00
9410;DHT22;4744;52.576;13.568;2022-11-15T01:54:36;3.70;1.00
9410;DHT22;4744;52.576;13.568;2022-11-15T01:57:05;3.60;1.00
9410;DHT22;4744;52.576;13.568;2022-11-15T01:59:35;3.60;1.00
9410;DHT22;4744;52.576;13.568;2022-11-15T02:02:03;3.60;1.00
9410;DHT22;4744;52.576;13.568;2022-11-15T02:04:32;3.60;1.00
9410;DHT22;4744;52.576;13.568;2022-11-15T02:07:00;3.60;1.00
9410;DHT22;4744;52.576;13.568;2022-11-15T02:09:29;3.60;1.00
9410;DHT22;4744;52.576;13.568;2022-11-15T02:11:56;3.60;1.00
9410;DHT22;4744;52.576;13.568;2022-11-15T02:14:26;3.60;1.00
9410;DHT22;4744;52.576;13.568;2022-11-15T02:16:59;3.60;1.00
9410;DHT22;4744;52.576;13.568;2022-11-15T02:22:37;3.60;1.00
9410;DHT22;4744;52.576;13.568;2022-11-15T02:25:33;3.60;1.00
9410;DHT22;4744;52.576;13.568;2022-11-15T02:28:26;3.60;1.00
9410;DHT22;4744;52.576;13.568;2022-11-15T02:31:02;3.60;1.00
9410;DHT22;4744;52.576;13.568;2022-11-15T02:33:35;3.60;1.00
9410;DHT22;4744;52.576;13.568;2022-11-15T02:36:11;3.50;1.00
9410;DHT22;4744;52.576;13.568;2022-11-15T02:38:45;3.50;1.00
9410;DHT22;4744;52.576;13.568;2022-11-15T02:41:17;3.50;1.00
9410;DHT22;4744;52.576;13.568;2022-11-15T02:43:53;3.60;1.00
9410;DHT22;4744;52.576;13.568;2022-11-15T02:46:31;3.50;1.00
9410;DHT22;4744;52.576;13.568;2022-11-15T02:49:16;3.50;1.00
9410;DHT22;4744;52.576;13.568;2022-11-15T02:51:46;3.50;1.00
9410;DHT22;4744;52.576;13.568;2022-11-15T02:54:17;3.50;1.00
9410;DHT22;4744;52.576;13.568;2022-11-15T02:56:46;3.50;1.00
9410;DHT22;4744;52.576;13.568;2022-11-15T02:59:31;3.40;1.00
9410;DHT22;4744;52.576;13.568;2022-11-15T03:02:13;3.50;1.00
9410;DHT22;4744;52.576;13.568;2022-11-15T03:04:45;3.50;1.00
9410;DHT22;4744;52.576;13.568;2022-11-15T03:07:18;3.40;1.00
9410;DHT22;4744;52.576;13.568;2022-11-15T03:09:52;3.40;1.00
9410;DHT22;4744;52.576;13.568;2022-11-15T03:12:25;3.40;1.00
9410;DHT22;4744;52.576;13.568;2022-11-15T03:14:58;3.40;1.00
9410;DHT22;4744;52.576;13.568;2022-11-15T03:17:30;3.40;1.00
9410;DHT22;4744;52.576;13.568;2022-11-15T03:20:02;3.40;1.00
9410;DHT22;4744;52.576;13.568;2022-11-15T03:22:35;3.40;1.00
9410;DHT22;4744;52.576;13.568;2022-11-15T03:25:05;3.40;1.00
9410;DHT22;4744;52.576;13.568;2022-11-15T03:27:38;3.30;1.00
9410;DHT22;4744;52.576;13.568;2022-11-15T03:30:07;3.40;1.00
9410;DHT22;4744;52.576;13.568;2022-11-15T03:32:40;3.40;1.00
9410;DHT22;4744;52.576;13.568;2022-11-15T03:35:11;3.30;1.00
9410;DHT22;4744;52.576;13.568;2022-11-15T03:37:57;3.30;1.00
9410;DHT22;4744;52.576;13.568;2022-11-15T03:40:30;3.30;1.00
9410;DHT22;4744;52.576;13.568;2022-11-15T03:43:04;3.30;1.00
9410;DHT22;4744;52.576;13.568;2022-11-15T03:45:36;3.20;1.00
9410;DHT22;4744;52.576;13.568;2022-11-15T03:48:12;3.20;1.00
9410;DHT22;4744;52.576;13.568;2022-11-15T03:50:41;3.20;1.00
9410;DHT22;4744;52.576;13.568;2022-11-15T03:53:08;3.20;1.00
9410;DHT22;4744;52.576;13.568;2022-11-15T03:55:35;3.20;1.00
9410;DHT22;4744;52.576;13.568;2022-11-15T03:58:02;3.20;1.00
9410;DHT22;4744;52.576;13.568;2022-11-15T04:00:29;3.20;1.00
9410;DHT22;4744;52.576;13.568;2022-11-15T04:02:56;3.20;1.00
9410;DHT22;4744;52.576;13.568;2022-11-15T04:05:25;3.20;1.00
9410;DHT22;4744;52.576;13.568;2022-11-15T04:07:52;3.20;1.00
9410;DHT22;4744;52.576;13.568;2022-11-15T04:10:19;3.20;1.00
9410;DHT22;4744;52.576;13.568;2022-11-15T04:12:46;3.20;1.00
9410;DHT22;4744;52.576;13.568;2022-11-15T04:15:16;3.20;1.00
9410;DHT22;4744;52.576;13.568;2022-11-15T04:17:44;3.20;1.00
9410;DHT22;4744;52.576;13.568;2022-11-15T04:20:14;3.20;1.00
9410;DHT22;4744;52.576;13.568;2022-11-15T04:23:01;3.20;1.00
9410;DHT22;4744;52.576;13.568;2022-11-15T04:25:48;3.10;1.00
9410;DHT22;4744;52.576;13.568;2022-11-15T04:28:16;3.20;1.00
9410;DHT22;4744;52.576;13.568;2022-11-15T04:30:43;3.20;1.00
9410;DHT22;4744;52.576;13.568;2022-11-15T04:33:10;3.20;1.00
9410;DHT22;4744;52.576;13.568;2022-11-15T04:35:37;3.20;1.00
9410;DHT22;4744;52.576;13.568;2022-11-15T04:38:07;3.20;1.00
9410;DHT22;4744;52.576;13.568;2022-11-15T04:40:33;3.20;1.00
9410;DHT22;4744;52.576;13.568;2022-11-15T04:43:00;3.20;1.00
9410;DHT22;4744;52.576;13.568;2022-11-15T04:45:27;3.20;1.00
9410;DHT22;4744;52.576;13.568;2022-11-15T04:47:54;3.20;1.00
9410;DHT22;4744;52.576;13.568;2022-11-15T04:50:21;3.20;1.00
9410;DHT22;4744;52.576;13.568;2022-11-15T04:52:51;3.20;1.00
9410;DHT22;4744;52.576;13.568;2022-11-15T04:55:20;3.20;1.00
9410;DHT22;4744;52.576;13.568;2022-11-15T04:57:47;3.20;1.00
9410;DHT22;4744;52.576;13.568;2022-11-15T05:00:16;3.20;1.00
9410;DHT22;4744;52.576;13.568;2022-11-15T05:02:43;3.20;1.00
9410;DHT22;4744;52.576;13.568;2022-11-15T05:05:27;3.20;1.00
9410;DHT22;4744;52.576;13.568;2022-11-15T05:07:54;3.20;1.00
9410;DHT22;4744;52.576;13.568;2022-11-15T05:10:23;3.20;1.00
9410;DHT22;4744;52.576;13.568;2022-11-15T05:12:49;3.10;1.00
9410;DHT22;4744;52.576;13.568;2022-11-15T05:15:16;3.10;1.00
9410;DHT22;4744;52.576;13.568;2022-11-15T05:17:43;3.20;1.00
9410;DHT22;4744;52.576;13.568;2022-11-15T05:20:11;3.10;1.00
9410;DHT22;4744;52.576;13.568;2022-11-15T05:22:38;3.10;1.00
9410;DHT22;4744;52.576;13.568;2022-11-15T05:25:06;3.10;1.00
9410;DHT22;4744;52.576;13.568;2022-11-15T05:27:35;3.10;1.00
9410;DHT22;4744;52.576;13.568;2022-11-15T05:30:02;3.10;1.00
9410;DHT22;4744;52.576;13.568;2022-11-15T05:32:29;3.10;1.00
9410;DHT22;4744;52.576;13.568;2022-11-15T05:34:56;3.10;1.00
9410;DHT22;4744;52.576;13.568;2022-11-15T05:37:23;3.10;1.00
9410;DHT22;4744;52.576;13.568;2022-11-15T05:39:50;3.10;1.00
9410;DHT22;4744;52.576;13.568;2022-11-15T05:42:17;3.10;1.00
9410;DHT22;4744;52.576;13.568;2022-11-15T05:44:48;3.10;1.00
9410;DHT22;4744;52.576;13.568;2022-11-15T05:47:18;3.10;1.00
9410;DHT22;4744;52.576;13.568;2022-11-15T05:49:48;3.10;1.00
9410;DHT22;4744;52.576;13.568;2022-11-15T05:52:20;3.10;1.00
9410;DHT22;4744;52.576;13.568;2022-11-15T05:54:49;3.10;1.00
9410;DHT22;4744;52.576;13.568;2022-11-15T05:57:17;3.00;1.00
9410;DHT22;4744;52.576;13.568;2022-11-15T05:59:45;3.00;1.00
9410;DHT22;4744;52.576;13.568;2022-11-15T06:02:12;3.00;1.00
9410;DHT22;4744;52.576;13.568;2022-11-15T06:04:39;3.00;1.00
9410;DHT22;4744;52.576;13.568;2022-11-15T06:07:06;3.00;1.00
9410;DHT22;4744;52.576;13.568;2022-11-15T06:09:33;3.00;1.00
9410;DHT22;4744;52.576;13.568;2022-11-15T06:12:00;3.00;1.00
9410;DHT22;4744;52.576;13.568;2022-11-15T06:14:27;3.00;1.00
9410;DHT22;4744;52.576;13.568;2022-11-15T06:16:55;3.00;1.00
9410;DHT22;4744;52.576;13.568;2022-11-15T06:19:22;3.00;1.00
9410;DHT22;4744;52.576;13.568;2022-11-15T06:21:49;2.90;1.00
9410;DHT22;4744;52.576;13.568;2022-11-15T06:24:16;2.90;1.00
9410;DHT22;4744;52.576;13.568;2022-11-15T06:26:43;2.90;1.00
9410;DHT22;4744;52.576;13.568;2022-11-15T06:29:10;2.90;1.00
9410;DHT22;4744;52.576;13.568;2022-11-15T06:31:37;2.90;1.00
9410;DHT22;4744;52.576;13.568;2022-11-15T06:34:05;2.90;1.00
9410;DHT22;4744;52.576;13.568;2022-11-15T06:36:34;2.90;1.00
9410;DHT22;4744;52.576;13.568;2022-11-15T06:39:01;2.90;1.00
9410;DHT22;4744;52.576;13.568;2022-11-15T06:41:28;2.90;1.00
9410;DHT22;4744;52.576;13.568;2022-11-15T06:43:56;2.90;1.00
9410;DHT22;4744;52.576;13.568;2022-11-15T06:46:23;2.90;1.00
9410;DHT22;4744;52.576;13.568;2022-11-15T06:48:50;2.90;1.00
9410;DHT22;4744;52.576;13.568;2022-11-15T06:51:19;2.90;1.00
9410;DHT22;4744;52.576;13.568;2022-11-15T06:53:46;3.00;1.00
9410;DHT22;4744;52.576;13.568;2022-11-15T06:56:13;3.00;1.00
9410;DHT22;4744;52.576;13.568;2022-11-15T06:58:40;3.00;1.00
9410;DHT22;4744;52.576;13.568;2022-11-15T07:01:09;3.10;1.00
9410;DHT22;4744;52.576;13.568;2022-11-15T07:03:36;3.10;1.00
9410;DHT22;4744;52.576;13.568;2022-11-15T07:06:04;3.20;1.00
9410;DHT22;4744;52.576;13.568;2022-11-15T07:08:33;3.40;1.00
9410;DHT22;4744;52.576;13.568;2022-11-15T07:11:01;3.40;1.00
9410;DHT22;4744;52.576;13.568;2022-11-15T07:13:31;3.50;1.00
9410;DHT22;4744;52.576;13.568;2022-11-15T07:16:02;3.60;1.00
9410;DHT22;4744;52.576;13.568;2022-11-15T07:18:29;3.60;1.00
9410;DHT22;4744;52.576;13.568;2022-11-15T07:21:00;3.60;1.00
9410;DHT22;4744;52.576;13.568;2022-11-15T07:23:27;3.70;1.00
9410;DHT22;4744;52.576;13.568;2022-11-15T07:25:56;3.70;1.00
9410;DHT22;4744;52.576;13.568;2022-11-15T07:28:23;3.70;1.00
9410;DHT22;4744;52.576;13.568;2022-11-15T07:30:50;3.80;1.00
9410;DHT22;4744;52.576;13.568;2022-11-15T07:33:17;3.80;1.00
9410;DHT22;4744;52.576;13.568;2022-11-15T07:35:44;3.90;1.00
9410;DHT22;4744;52.576;13.568;2022-11-15T07:38:14;3.90;1.00
9410;DHT22;4744;52.576;13.568;2022-11-15T07:40:45;4.00;1.00
9410;DHT22;4744;52.576;13.568;2022-11-15T07:43:13;4.00;1.00
9410;DHT22;4744;52.576;13.568;2022-11-15T07:45:42;4.10;1.00
9410;DHT22;4744;52.576;13.568;2022-11-15T07:48:09;4.20;1.00
9410;DHT22;4744;52.576;13.568;2022-11-15T07:50:36;4.20;1.00
9410;DHT22;4744;52.576;13.568;2022-11-15T07:53:03;4.30;1.00
9410;DHT22;4744;52.576;13.568;2022-11-15T07:55:30;4.40;1.00
9410;DHT22;4744;52.576;13.568;2022-11-15T07:58:01;4.50;1.00
9410;DHT22;4744;52.576;13.568;2022-11-15T08:00:30;4.60;1.00
9410;DHT22;4744;52.576;13.568;2022-11-15T08:03:05;4.70;1.00
9410;DHT22;4744;52.576;13.568;2022-11-15T08:05:33;4.80;1.00
9410;DHT22;4744;52.576;13.568;2022-11-15T08:08:00;5.00;1.00
9410;DHT22;4744;52.576;13.568;2022-11-15T08:10:28;5.10;1.00
9410;DHT22;4744;52.576;13.568;2022-11-15T08:12:59;5.30;1.00
9410;DHT22;4744;52.576;13.568;2022-11-15T08:15:26;5.50;1.00
9410;DHT22;4744;52.576;13.568;2022-11-15T08:17:55;5.80;1.00
9410;DHT22;4744;52.576;13.568;2022-11-15T08:20:22;6.30;1.00
9410;DHT22;4744;52.576;13.568;2022-11-15T08:22:49;7.60;1.00
9410;DHT22;4744;52.576;13.568;2022-11-15T08:25:16;9.20;1.00
9410;DHT22;4744;52.576;13.568;2022-11-15T08:27:43;10.60;1.00
9410;DHT22;4744;52.576;13.568;2022-11-15T08:30:11;11.90;1.00
9410;DHT22;4744;52.576;13.568;2022-11-15T08:32:39;12.90;1.00
9410;DHT22;4744;52.576;13.568;2022-11-15T08:35:08;13.70;1.00
9410;DHT22;4744;52.576;13.568;2022-11-15T08:37:35;14.00;1.00
9410;DHT22;4744;52.576;13.568;2022-11-15T08:40:02;14.30;1.00
9410;DHT22;4744;52.576;13.568;2022-11-15T08:42:29;14.80;1.00
9410;DHT22;4744;52.576;13.568;2022-11-15T08:44:56;15.00;1.00
9410;DHT22;4744;52.576;13.568;2022-11-15T08:47:23;14.60;1.00
9410;DHT22;4744;52.576;13.568;2022-11-15T08:49:50;14.00;1.00
9410;DHT22;4744;52.576;13.568;2022-11-15T08:52:18;13.50;1.00
9410;DHT22;4744;52.576;13.568;2022-11-15T08:54:45;13.20;1.00
9410;DHT22;4744;52.576;13.568;2022-11-15T08:59:07;12.70;1.00
9410;DHT22;4744;52.576;13.568;2022-11-15T09:01:34;12.20;1.00
9410;DHT22;4744;52.576;13.568;2022-11-15T09:04:00;12.20;1.00
9410;DHT22;4744;52.576;13.568;2022-11-15T09:06:29;12.40;1.00
9410;DHT22;4744;52.576;13.568;2022-11-15T09:08:56;13.20;1.00
9410;DHT22;4744;52.576;13.568;2022-11-15T09:11:23;14.30;1.00
9410;DHT22;4744;52.576;13.568;2022-11-15T09:13:50;15.50;1.00
9410;DHT22;4744;52.576;13.568;2022-11-15T09:16:18;16.40;1.00
9410;DHT22;4744;52.576;13.568;2022-11-15T09:18:45;17.20;1.00
9410;DHT22;4744;52.576;13.568;2022-11-15T09:21:12;17.80;1.00
9410;DHT22;4744;52.576;13.568;2022-11-15T09:23:39;18.20;1.00
9410;DHT22;4744;52.576;13.568;2022-11-15T09:26:07;18.50;1.00
9410;DHT22;4744;52.576;13.568;2022-11-15T09:28:34;18.70;1.00
9410;DHT22;4744;52.576;13.568;2022-11-15T09:31:04;18.70;1.00
9410;DHT22;4744;52.576;13.568;2022-11-15T09:33:33;18.60;1.00
9410;DHT22;4744;52.576;13.568;2022-11-15T09:36:01;18.40;1.00
9410;DHT22;4744;52.576;13.568;2022-11-15T09:38:28;17.90;1.00
9410;DHT22;4744;52.576;13.568;2022-11-15T09:41:23;17.40;1.00
9410;DHT22;4744;52.576;13.568;2022-11-15T09:43:58;16.80;1.00
9410;DHT22;4744;52.576;13.568;2022-11-15T09:46:34;16.40;1.00
9410;DHT22;4744;52.576;13.568;2022-11-15T09:49:07;16.40;1.00
9410;DHT22;4744;52.576;13.568;2022-11-15T09:51:37;15.50;1.00
9410;DHT22;4744;52.576;13.568;2022-11-15T09:54:20;14.80;1.00
9410;DHT22;4744;52.576;13.568;2022-11-15T09:56:48;14.40;1.00
9410;DHT22;4744;52.576;13.568;2022-11-15T09:59:40;14.00;1.00
9410;DHT22;4744;52.576;13.568;2022-11-15T10:02:20;13.50;1.00
9410;DHT22;4744;52.576;13.568;2022-11-15T10:04:50;13.30;1.00
9410;DHT22;4744;52.576;13.568;2022-11-15T10:07:20;12.70;1.00
9410;DHT22;4744;52.576;13.568;2022-11-15T10:09:53;12.50;1.00
9410;DHT22;4744;52.576;13.568;2022-11-15T10:12:23;12.30;1.00
9410;DHT22;4744;52.576;13.568;2022-11-15T10:14:58;12.20;1.00
9410;DHT22;4744;52.576;13.568;2022-11-15T10:20:37;11.70;1.00
9410;DHT22;4744;52.576;13.568;2022-11-15T10:23:11;11.60;1.00
9410;DHT22;4744;52.576;13.568;2022-11-15T10:25:40;11.60;1.00
9410;DHT22;4744;52.576;13.568;2022-11-15T10:28:13;11.70;1.00
9410;DHT22;4744;52.576;13.568;2022-11-15T10:30:42;12.10;1.00
9410;DHT22;4744;52.576;13.568;2022-11-15T10:33:15;12.90;1.00
9410;DHT22;4744;52.576;13.568;2022-11-15T10:35:46;13.90;1.00
9410;DHT22;4744;52.576;13.568;2022-11-15T10:38:15;14.40;1.00
9410;DHT22;4744;52.576;13.568;2022-11-15T10:40:42;14.70;1.00
9410;DHT22;4744;52.576;13.568;2022-11-15T10:43:16;14.90;1.00
9410;DHT22;4744;52.576;13.568;2022-11-15T10:45:44;15.20;1.00
9410;DHT22;4744;52.576;13.568;2022-11-15T10:48:23;15.40;1.00
9410;DHT22;4744;52.576;13.568;2022-11-15T10:50:53;15.40;1.00
9410;DHT22;4744;52.576;13.568;2022-11-15T10:53:32;15.60;1.00
9410;DHT22;4744;52.576;13.568;2022-11-15T10:56:03;16.00;1.00
9410;DHT22;4744;52.576;13.568;2022-11-15T10:58:37;16.20;1.00
9410;DHT22;4744;52.576;13.568;2022-11-15T11:01:15;16.00;1.00
9410;DHT22;4744;52.576;13.568;2022-11-15T11:03:44;15.50;1.00
9410;DHT22;4744;52.576;13.568;2022-11-15T11:06:14;14.90;1.00
9410;DHT22;4744;52.576;13.568;2022-11-15T11:08:54;14.70;1.00
9410;DHT22;4744;52.576;13.568;2022-11-15T11:11:22;15.40;1.00
9410;DHT22;4744;52.576;13.568;2022-11-15T11:13:49;16.10;1.00
9410;DHT22;4744;52.576;13.568;2022-11-15T11:16:41;15.80;1.00
9410;DHT22;4744;52.576;13.568;2022-11-15T11:19:18;15.20;1.00
9410;DHT22;4744;52.576;13.568;2022-11-15T11:21:59;15.10;1.00
9410;DHT22;4744;52.576;13.568;2022-11-15T11:24:32;15.20;1.00
9410;DHT22;4744;52.576;13.568;2022-11-15T11:27:12;15.40;1.00
9410;DHT22;4744;52.576;13.568;2022-11-15T11:29:50;15.60;1.00
9410;DHT22;4744;52.576;13.568;2022-11-15T11:32:34;15.90;1.00
9410;DHT22;4744;52.576;13.568;2022-11-15T11:35:10;15.80;1.00
9410;DHT22;4744;52.576;13.568;2022-11-15T11:37:47;15.30;1.00
9410;DHT22;4744;52.576;13.568;2022-11-15T11:40:30;14.80;1.00
9410;DHT22;4744;52.576;13.568;2022-11-15T11:43:03;14.40;1.00
9410;DHT22;4744;52.576;13.568;2022-11-15T11:45:50;14.10;1.00
9410;DHT22;4744;52.576;13.568;2022-11-15T11:48:30;13.80;1.00
9410;DHT22;4744;52.576;13.568;2022-11-15T11:51:08;13.60;1.00
9410;DHT22;4744;52.576;13.568;2022-11-15T11:53:41;13.40;1.00
9410;DHT22;4744;52.576;13.568;2022-11-15T11:56:17;13.30;1.00
9410;DHT22;4744;52.576;13.568;2022-11-15T11:58:46;13.20;1.00
9410;DHT22;4744;52.576;13.568;2022-11-15T12:01:20;13.20;1.00
9410;DHT22;4744;52.576;13.568;2022-11-15T12:03:53;13.10;1.00
9410;DHT22;4744;52.576;13.568;2022-11-15T12:06:28;13.10;1.00
9410;DHT22;4744;52.576;13.568;2022-11-15T12:09:03;13.10;1.00
9410;DHT22;4744;52.576;13.568;2022-11-15T12:11:38;13.00;1.00
9410;DHT22;4744;52.576;13.568;2022-11-15T12:14:12;13.00;1.00
9410;DHT22;4744;52.576;13.568;2022-11-15T12:16:43;13.00;1.00
9410;DHT22;4744;52.576;13.568;2022-11-15T12:19:10;13.00;1.00
9410;DHT22;4744;52.576;13.568;2022-11-15T12:21:43;13.00;1.00
9410;DHT22;4744;52.576;13.568;2022-11-15T12:24:16;12.90;1.00
9410;DHT22;4744;52.576;13.568;2022-11-15T12:26:49;12.90;1.00
9410;DHT22;4744;52.576;13.568;2022-11-15T12:29:23;12.90;1.00
9410;DHT22;4744;52.576;13.568;2022-11-15T12:31:54;12.90;1.00
9410;DHT22;4744;52.576;13.568;2022-11-15T12:34:45;12.90;1.00
9410;DHT22;4744;52.576;13.568;2022-11-15T12:37:32;13.00;1.00
9410;DHT22;4744;52.576;13.568;2022-11-15T12:40:38;13.00;1.00
9410;DHT22;4744;52.576;13.568;2022-11-15T12:46:12;13.00;1.00
9410;DHT22;4744;52.576;13.568;2022-11-15T12:48:49;13.10;1.00
9410;DHT22;4744;52.576;13.568;2022-11-15T12:51:16;13.10;1.00
9410;DHT22;4744;52.576;13.568;2022-11-15T12:53:44;13.20;1.00
9410;DHT22;4744;52.576;13.568;2022-11-15T12:56:22;13.30;1.00
9410;DHT22;4744;52.576;13.568;2022-11-15T12:58:54;13.30;1.00
9410;DHT22;4744;52.576;13.568;2022-11-15T13:04:26;13.40;1.00
9410;DHT22;4744;52.576;13.568;2022-11-15T13:06:55;13.50;1.00
9410;DHT22;4744;52.576;13.568;2022-11-15T13:09:50;13.50;1.00
9410;DHT22;4744;52.576;13.568;2022-11-15T13:12:54;13.40;1.00
9410;DHT22;4744;52.576;13.568;2022-11-15T13:15:59;13.40;1.00
9410;DHT22;4744;52.576;13.568;2022-11-15T13:18:33;13.40;1.00
9410;DHT22;4744;52.576;13.568;2022-11-15T13:21:01;13.40;1.00
9410;DHT22;4744;52.576;13.568;2022-11-15T13:23:52;13.40;1.00
9410;DHT22;4744;52.576;13.568;2022-11-15T13:26:20;13.30;1.00
9410;DHT22;4744;52.576;13.568;2022-11-15T13:28:50;13.30;1.00
9410;DHT22;4744;52.576;13.568;2022-11-15T13:31:29;13.30;1.00
9410;DHT22;4744;52.576;13.568;2022-11-15T13:33:59;13.20;1.00
9410;DHT22;4744;52.576;13.568;2022-11-15T13:36:29;13.20;1.00
9410;DHT22;4744;52.576;13.568;2022-11-15T13:39:00;13.10;1.00
9410;DHT22;4744;52.576;13.568;2022-11-15T13:41:29;13.00;1.00
9410;DHT22;4744;52.576;13.568;2022-11-15T13:43:58;13.00;1.00
9410;DHT22;4744;52.576;13.568;2022-11-15T13:46:27;13.00;1.00
9410;DHT22;4744;52.576;13.568;2022-11-15T13:48:57;12.90;1.00
9410;DHT22;4744;52.576;13.568;2022-11-15T13:51:29;12.90;1.00
9410;DHT22;4744;52.576;13.568;2022-11-15T13:53:59;12.80;1.00
9410;DHT22;4744;52.576;13.568;2022-11-15T13:56:27;12.70;1.00
9410;DHT22;4744;52.576;13.568;2022-11-15T13:58:55;12.60;1.00
9410;DHT22;4744;52.576;13.568;2022-11-15T14:01:25;12.60;1.00
9410;DHT22;4744;52.576;13.568;2022-11-15T14:03:56;12.50;1.00
9410;DHT22;4744;52.576;13.568;2022-11-15T14:06:25;12.40;1.00
9410;DHT22;4744;52.576;13.568;2022-11-15T14:09:14;12.40;1.00
9410;DHT22;4744;52.576;13.568;2022-11-15T14:11:50;12.30;1.00
9410;DHT22;4744;52.576;13.568;2022-11-15T14:14:20;12.20;1.00
9410;DHT22;4744;52.576;13.568;2022-11-15T14:16:50;12.20;1.00
9410;DHT22;4744;52.576;13.568;2022-11-15T14:19:38;12.10;1.00
9410;DHT22;4744;52.576;13.568;2022-11-15T14:22:18;12.00;1.00
9410;DHT22;4744;52.576;13.568;2022-11-15T14:27:29;11.90;1.00
9410;DHT22;4744;52.576;13.568;2022-11-15T14:29:56;11.80;1.00
9410;DHT22;4744;52.576;13.568;2022-11-15T14:32:26;11.80;1.00
9410;DHT22;4744;52.576;13.568;2022-11-15T14:34:56;11.70;1.00
9410;DHT22;4744;52.576;13.568;2022-11-15T14:37:25;11.70;1.00
9410;DHT22;4744;52.576;13.568;2022-11-15T14:39:52;11.60;1.00
9410;DHT22;4744;52.576;13.568;2022-11-15T14:42:21;11.60;1.00
9410;DHT22;4744;52.576;13.568;2022-11-15T14:44:48;11.50;1.00
9410;DHT22;4744;52.576;13.568;2022-11-15T14:47:15;11.40;1.00
9410;DHT22;4744;52.576;13.568;2022-11-15T14:49:44;11.40;1.00
9410;DHT22;4744;52.576;13.568;2022-11-15T14:52:26;11.30;1.00
9410;DHT22;4744;52.576;13.568;2022-11-15T14:54:54;11.20;1.00
9410;DHT22;4744;52.576;13.568;2022-11-15T14:57:21;11.20;1.00
9410;DHT22;4744;52.576;13.568;2022-11-15T14:59:48;11.10;1.00
9410;DHT22;4744;52.576;13.568;2022-11-15T15:02:17;11.10;1.00
9410;DHT22;4744;52.576;13.568;2022-11-15T15:04:46;11.00;1.00
9410;DHT22;4744;52.576;13.568;2022-11-15T15:07:13;10.90;1.00
9410;DHT22;4744;52.576;13.568;2022-11-15T15:09:41;10.90;1.00
9410;DHT22;4744;52.576;13.568;2022-11-15T15:12:16;10.80;1.00
9410;DHT22;4744;52.576;13.568;2022-11-15T15:14:44;10.80;1.00
9410;DHT22;4744;52.576;13.568;2022-11-15T15:17:11;10.70;1.00
9410;DHT22;4744;52.576;13.568;2022-11-15T15:19:38;10.60;1.00
9410;DHT22;4744;52.576;13.568;2022-11-15T15:22:11;10.60;1.00
9410;DHT22;4744;52.576;13.568;2022-11-15T15:24:39;10.50;1.00
9410;DHT22;4744;52.576;13.568;2022-11-15T15:27:06;10.50;1.00
9410;DHT22;4744;52.576;13.568;2022-11-15T15:29:33;10.40;1.00
9410;DHT22;4744;52.576;13.568;2022-11-15T15:32:00;10.30;1.00
9410;DHT22;4744;52.576;13.568;2022-11-15T15:34:27;10.30;1.00
9410;DHT22;4744;52.576;13.568;2022-11-15T15:37:08;10.20;1.00
9410;DHT22;4744;52.576;13.568;2022-11-15T15:39:35;10.10;1.00
9410;DHT22;4744;52.576;13.568;2022-11-15T15:42:02;10.00;1.00
9410;DHT22;4744;52.576;13.568;2022-11-15T15:44:30;9.90;1.00
9410;DHT22;4744;52.576;13.568;2022-11-15T15:46:57;9.90;1.00
9410;DHT22;4744;52.576;13.568;2022-11-15T15:49:24;9.90;1.00
9410;DHT22;4744;52.576;13.568;2022-11-15T15:51:51;9.70;1.00
9410;DHT22;4744;52.576;13.568;2022-11-15T15:54:19;9.70;1.00
9410;DHT22;4744;52.576;13.568;2022-11-15T15:56:46;9.60;1.00
9410;DHT22;4744;52.576;13.568;2022-11-15T15:59:13;9.60;1.00
9410;DHT22;4744;52.576;13.568;2022-11-15T16:01:40;9.50;1.00
9410;DHT22;4744;52.576;13.568;2022-11-15T16:04:07;9.40;1.00
9410;DHT22;4744;52.576;13.568;2022-11-15T16:06:36;9.30;1.00
9410;DHT22;4744;52.576;13.568;2022-11-15T16:09:04;9.20;1.00
9410;DHT22;4744;52.576;13.568;2022-11-15T16:11:33;9.10;1.00
9410;DHT22;4744;52.576;13.568;2022-11-15T16:14:00;9.00;1.00
9410;DHT22;4744;52.576;13.568;2022-11-15T16:16:27;8.90;1.00
9410;DHT22;4744;52.576;13.568;2022-11-15T16:18:54;8.80;1.00
9410;DHT22;4744;52.576;13.568;2022-11-15T16:21:21;8.80;1.00
9410;DHT22;4744;52.576;13.568;2022-11-15T16:23:48;8.70;1.00
9410;DHT22;4744;52.576;13.568;2022-11-15T16:26:27;8.60;1.00
9410;DHT22;4744;52.576;13.568;2022-11-15T16:28:57;8.60;1.00
9410;DHT22;4744;52.576;13.568;2022-11-15T16:31:24;8.50;1.00
9410;DHT22;4744;52.576;13.568;2022-11-15T16:33:51;8.40;1.00
9410;DHT22;4744;52.576;13.568;2022-11-15T16:36:22;8.40;1.00
9410;DHT22;4744;52.576;13.568;2022-11-15T16:38:49;8.30;1.00
9410;DHT22;4744;52.576;13.568;2022-11-15T16:41:16;8.30;1.00
9410;DHT22;4744;52.576;13.568;2022-11-15T16:43:44;8.20;1.00
9410;DHT22;4744;52.576;13.568;2022-11-15T16:46:18;8.20;1.00
9410;DHT22;4744;52.576;13.568;2022-11-15T16:48:45;8.10;1.00
9410;DHT22;4744;52.576;13.568;2022-11-15T16:51:13;8.00;1.00